sensor_id;sensor_type;location;lat;lon;timestamp;P1;durP1;ratioP1;P2;durP2;ratioP2
12591;SDS011;6361;52.120;5.108;2023-02-15T00:01:16;32.65;;;21.88;;
12591;SDS011;6361;52.120;5.108;2023-02-15T00:03:41;34.17;;;22.52;;
12591;SDS011;6361;52.120;5.108;2023-02-15T00:06:06;32.55;;;20.23;;
12591;SDS011;6361;52.120;5.108;2023-02-15T00:08:34;37.83;;;23.80;;
12591;SDS011;6361;52.120;5.108;2023-02-15T00:11:04;37.63;;;21.60;;
12591;SDS011;6361;52.120;5.108;2023-02-15T00:13:32;35.47;;;22.58;;
12591;SDS011;6361;52.120;5.108;2023-02-15T00:16:03;37.55;;;24.30;;
12591;SDS011;6361;52.120;5.108;2023-02-15T00:18:31;30.02;;;20.13;;
12591;SDS011;6361;52.120;5.108;2023-02-15T00:20:56;33.90;;;22.08;;
12591;SDS011;6361;52.120;5.108;2023-02-15T00:23:22;32.13;;;21.08;;
12591;SDS011;6361;52.120;5.108;2023-02-15T00:25:47;31.85;;;20.52;;
12591;SDS011;6361;52.120;5.108;2023-02-15T00:28:12;30.58;;;21.08;;
12591;SDS011;6361;52.120;5.108;2023-02-15T00:30:38;31.83;;;19.13;;
12591;SDS011;6361;52.120;5.108;2023-02-15T00:33:03;30.85;;;20.42;;
12591;SDS011;6361;52.120;5.108;2023-02-15T00:35:28;27.48;;;18.63;;
12591;SDS011;6361;52.120;5.108;2023-02-15T00:37:55;29.98;;;19.20;;
12591;SDS011;6361;52.120;5.108;2023-02-15T00:40:21;29.15;;;18.15;;
12591;SDS011;6361;52.120;5.108;2023-02-15T00:42:46;28.67;;;19.40;;
12591;SDS011;6361;52.120;5.108;2023-02-15T00:45:12;28.55;;;19.27;;
12591;SDS011;6361;52.120;5.108;2023-02-15T00:47:38;28.63;;;20.25;;
12591;SDS011;6361;52.120;5.108;2023-02-15T00:50:04;36.00;;;22.05;;
12591;SDS011;6361;52.120;5.108;2023-02-15T00:52:30;28.95;;;19.15;;
12591;SDS011;6361;52.120;5.108;2023-02-15T00:54:55;31.85;;;21.00;;
12591;SDS011;6361;52.120;5.108;2023-02-15T00:57:21;30.52;;;20.17;;
12591;SDS011;6361;52.120;5.108;2023-02-15T00:59:46;29.58;;;20.73;;
12591;SDS011;6361;52.120;5.108;2023-02-15T01:02:11;32.65;;;19.55;;
12591;SDS011;6361;52.120;5.108;2023-02-15T01:04:37;31.60;;;21.27;;
12591;SDS011;6361;52.120;5.108;2023-02-15T01:07:02;34.88;;;21.63;;
12591;SDS011;6361;52.120;5.108;2023-02-15T01:09:28;31.73;;;20.73;;
12591;SDS011;6361;52.120;5.108;2023-02-15T01:11:54;33.15;;;21.30;;
12591;SDS011;6361;52.120;5.108;2023-02-15T01:14:21;34.13;;;21.17;;
12591;SDS011;6361;52.120;5.108;2023-02-15T01:16:47;36.10;;;22.27;;
12591;SDS011;6361;52.120;5.108;2023-02-15T01:19:12;33.25;;;21.60;;
12591;SDS011;6361;52.120;5.108;2023-02-15T01:21:38;33.95;;;21.92;;
12591;SDS011;6361;52.120;5.108;2023-02-15T01:24:05;36.10;;;23.48;;
12591;SDS011;6361;52.120;5.108;2023-02-15T01:26:36;42.00;;;25.92;;
12591;SDS011;6361;52.120;5.108;2023-02-15T01:29:01;39.97;;;25.77;;
12591;SDS011;6361;52.120;5.108;2023-02-15T01:31:27;40.95;;;26.23;;
12591;SDS011;6361;52.120;5.108;2023-02-15T01:33:52;42.42;;;26.55;;
12591;SDS011;6361;52.120;5.108;2023-02-15T01:36:17;47.88;;;27.92;;
12591;SDS011;6361;52.120;5.108;2023-02-15T01:38:43;44.15;;;27.25;;
12591;SDS011;6361;52.120;5.108;2023-02-15T01:41:09;41.25;;;26.40;;
12591;SDS011;6361;52.120;5.108;2023-02-15T01:46:16;47.65;;;28.40;;
12591;SDS011;6361;52.120;5.108;2023-02-15T01:48:47;51.17;;;28.05;;
12591;SDS011;6361;52.120;5.108;2023-02-15T01:51:14;47.40;;;28.15;;
12591;SDS011;6361;52.120;5.108;2023-02-15T01:53:45;47.53;;;28.38;;
12591;SDS011;6361;52.120;5.108;2023-02-15T01:56:19;50.28;;;28.15;;
12591;SDS011;6361;52.120;5.108;2023-02-15T01:58:46;48.78;;;29.10;;
12591;SDS011;6361;52.120;5.108;2023-02-15T02:01:12;48.08;;;28.88;;
12591;SDS011;6361;52.120;5.108;2023-02-15T02:06:12;53.78;;;29.17;;
12591;SDS011;6361;52.120;5.108;2023-02-15T02:08:38;46.50;;;27.98;;
12591;SDS011;6361;52.120;5.108;2023-02-15T02:11:08;46.20;;;28.67;;
12591;SDS011;6361;52.120;5.108;2023-02-15T02:13:35;49.50;;;28.52;;
12591;SDS011;6361;52.120;5.108;2023-02-15T02:16:04;48.53;;;27.73;;
12591;SDS011;6361;52.120;5.108;2023-02-15T02:29:26;46.65;;;27.77;;
12591;SDS011;6361;52.120;5.108;2023-02-15T02:34:59;46.22;;;28.33;;
12591;SDS011;6361;52.120;5.108;2023-02-15T02:37:28;49.85;;;29.02;;
12591;SDS011;6361;52.120;5.108;2023-02-15T02:45:05;49.45;;;27.98;;
12591;SDS011;6361;52.120;5.108;2023-02-15T02:48:16;55.97;;;28.25;;
12591;SDS011;6361;52.120;5.108;2023-02-15T02:50:28;50.83;;;28.10;;
12591;SDS011;6361;52.120;5.108;2023-02-15T02:52:56;44.38;;;27.50;;
12591;SDS011;6361;52.120;5.108;2023-02-15T02:55:26;51.70;;;28.58;;
12591;SDS011;6361;52.120;5.108;2023-02-15T02:57:55;47.17;;;27.55;;
12591;SDS011;6361;52.120;5.108;2023-02-15T03:00:38;46.88;;;28.13;;
12591;SDS011;6361;52.120;5.108;2023-02-15T03:03:22;46.42;;;27.65;;
12591;SDS011;6361;52.120;5.108;2023-02-15T03:05:48;49.55;;;27.92;;
12591;SDS011;6361;52.120;5.108;2023-02-15T03:08:16;45.85;;;27.65;;
12591;SDS011;6361;52.120;5.108;2023-02-15T03:10:46;46.65;;;27.80;;
12591;SDS011;6361;52.120;5.108;2023-02-15T03:13:12;46.25;;;27.52;;
12591;SDS011;6361;52.120;5.108;2023-02-15T03:15:38;49.13;;;28.38;;
12591;SDS011;6361;52.120;5.108;2023-02-15T03:18:24;51.33;;;28.30;;
12591;SDS011;6361;52.120;5.108;2023-02-15T03:20:51;46.85;;;27.75;;
12591;SDS011;6361;52.120;5.108;2023-02-15T03:23:19;55.08;;;28.38;;
12591;SDS011;6361;52.120;5.108;2023-02-15T03:25:48;47.33;;;27.45;;
12591;SDS011;6361;52.120;5.108;2023-02-15T03:28:17;53.03;;;28.77;;
12591;SDS011;6361;52.120;5.108;2023-02-15T03:30:47;51.90;;;28.75;;
12591;SDS011;6361;52.120;5.108;2023-02-15T03:33:14;54.30;;;27.88;;
12591;SDS011;6361;52.120;5.108;2023-02-15T03:35:51;50.42;;;28.13;;
12591;SDS011;6361;52.120;5.108;2023-02-15T03:38:20;49.35;;;28.25;;
12591;SDS011;6361;52.120;5.108;2023-02-15T03:40:47;46.65;;;28.25;;
12591;SDS011;6361;52.120;5.108;2023-02-15T03:46:21;52.00;;;28.80;;
12591;SDS011;6361;52.120;5.108;2023-02-15T03:48:57;50.63;;;28.15;;
12591;SDS011;6361;52.120;5.108;2023-02-15T03:51:29;48.40;;;28.70;;
12591;SDS011;6361;52.120;5.108;2023-02-15T03:54:18;50.53;;;29.00;;
12591;SDS011;6361;52.120;5.108;2023-02-15T03:57:07;50.78;;;29.77;;
12591;SDS011;6361;52.120;5.108;2023-02-15T04:05:36;48.10;;;28.33;;
12591;SDS011;6361;52.120;5.108;2023-02-15T04:08:02;49.90;;;28.98;;
12591;SDS011;6361;52.120;5.108;2023-02-15T04:10:28;50.53;;;28.55;;
12591;SDS011;6361;52.120;5.108;2023-02-15T04:13:11;56.85;;;28.58;;
12591;SDS011;6361;52.120;5.108;2023-02-15T04:15:37;52.00;;;28.15;;
12591;SDS011;6361;52.120;5.108;2023-02-15T04:18:21;49.50;;;28.92;;
12591;SDS011;6361;52.120;5.108;2023-02-15T04:20:46;49.55;;;27.60;;
12591;SDS011;6361;52.120;5.108;2023-02-15T04:23:30;50.72;;;28.25;;
12591;SDS011;6361;52.120;5.108;2023-02-15T04:26:15;48.13;;;27.70;;
12591;SDS011;6361;52.120;5.108;2023-02-15T04:28:41;46.75;;;27.02;;
12591;SDS011;6361;52.120;5.108;2023-02-15T04:31:06;47.67;;;27.27;;
12591;SDS011;6361;52.120;5.108;2023-02-15T04:33:31;47.88;;;28.20;;
12591;SDS011;6361;52.120;5.108;2023-02-15T04:35:57;44.35;;;26.65;;
12591;SDS011;6361;52.120;5.108;2023-02-15T04:38:22;47.92;;;27.20;;
12591;SDS011;6361;52.120;5.108;2023-02-15T04:40:51;51.92;;;28.08;;
12591;SDS011;6361;52.120;5.108;2023-02-15T04:43:17;49.47;;;26.92;;
12591;SDS011;6361;52.120;5.108;2023-02-15T04:45:49;43.25;;;26.13;;
12591;SDS011;6361;52.120;5.108;2023-02-15T04:48:15;46.10;;;27.10;;
12591;SDS011;6361;52.120;5.108;2023-02-15T04:50:41;44.67;;;26.60;;
12591;SDS011;6361;52.120;5.108;2023-02-15T04:53:07;46.30;;;27.35;;
12591;SDS011;6361;52.120;5.108;2023-02-15T04:55:32;42.97;;;25.40;;
12591;SDS011;6361;52.120;5.108;2023-02-15T04:57:58;43.85;;;25.98;;
12591;SDS011;6361;52.120;5.108;2023-02-15T05:00:23;47.38;;;25.08;;
12591;SDS011;6361;52.120;5.108;2023-02-15T05:02:49;48.72;;;27.55;;
12591;SDS011;6361;52.120;5.108;2023-02-15T05:05:14;45.38;;;25.80;;
12591;SDS011;6361;52.120;5.108;2023-02-15T05:07:40;47.33;;;26.27;;
12591;SDS011;6361;52.120;5.108;2023-02-15T05:10:05;45.72;;;26.00;;
12591;SDS011;6361;52.120;5.108;2023-02-15T05:12:31;41.67;;;24.52;;
12591;SDS011;6361;52.120;5.108;2023-02-15T05:14:56;45.10;;;25.10;;
12591;SDS011;6361;52.120;5.108;2023-02-15T05:17:22;45.30;;;25.95;;
12591;SDS011;6361;52.120;5.108;2023-02-15T05:19:47;42.83;;;25.60;;
12591;SDS011;6361;52.120;5.108;2023-02-15T05:22:13;46.55;;;25.20;;
12591;SDS011;6361;52.120;5.108;2023-02-15T05:24:38;44.83;;;25.17;;
12591;SDS011;6361;52.120;5.108;2023-02-15T05:27:22;40.13;;;23.90;;
12591;SDS011;6361;52.120;5.108;2023-02-15T05:30:06;44.33;;;24.30;;
12591;SDS011;6361;52.120;5.108;2023-02-15T05:32:36;46.90;;;25.38;;
12591;SDS011;6361;52.120;5.108;2023-02-15T05:35:02;42.38;;;24.20;;
12591;SDS011;6361;52.120;5.108;2023-02-15T05:37:27;44.30;;;25.63;;
12591;SDS011;6361;52.120;5.108;2023-02-15T05:39:53;41.33;;;24.75;;
12591;SDS011;6361;52.120;5.108;2023-02-15T05:42:18;45.33;;;24.55;;
12591;SDS011;6361;52.120;5.108;2023-02-15T05:44:43;47.03;;;25.88;;
12591;SDS011;6361;52.120;5.108;2023-02-15T05:47:09;44.05;;;25.13;;
12591;SDS011;6361;52.120;5.108;2023-02-15T05:49:34;44.90;;;25.63;;
12591;SDS011;6361;52.120;5.108;2023-02-15T05:52:00;41.97;;;24.73;;
12591;SDS011;6361;52.120;5.108;2023-02-15T05:54:25;45.85;;;25.80;;
12591;SDS011;6361;52.120;5.108;2023-02-15T05:56:51;44.70;;;24.70;;
12591;SDS011;6361;52.120;5.108;2023-02-15T05:59:16;41.97;;;24.17;;
12591;SDS011;6361;52.120;5.108;2023-02-15T06:01:42;44.15;;;24.73;;
12591;SDS011;6361;52.120;5.108;2023-02-15T06:04:07;43.13;;;23.95;;
12591;SDS011;6361;52.120;5.108;2023-02-15T06:06:32;45.97;;;24.48;;
12591;SDS011;6361;52.120;5.108;2023-02-15T06:08:59;44.38;;;24.27;;
12591;SDS011;6361;52.120;5.108;2023-02-15T06:11:25;43.45;;;24.63;;
12591;SDS011;6361;52.120;5.108;2023-02-15T06:13:50;42.08;;;23.95;;
12591;SDS011;6361;52.120;5.108;2023-02-15T06:16:16;43.22;;;25.35;;
12591;SDS011;6361;52.120;5.108;2023-02-15T06:18:41;38.90;;;23.42;;
12591;SDS011;6361;52.120;5.108;2023-02-15T06:21:07;44.97;;;25.80;;
12591;SDS011;6361;52.120;5.108;2023-02-15T06:23:33;43.67;;;25.13;;
12591;SDS011;6361;52.120;5.108;2023-02-15T06:25:58;43.75;;;24.38;;
12591;SDS011;6361;52.120;5.108;2023-02-15T06:28:23;39.20;;;23.30;;
12591;SDS011;6361;52.120;5.108;2023-02-15T06:30:50;44.60;;;25.35;;
12591;SDS011;6361;52.120;5.108;2023-02-15T06:33:16;45.25;;;24.75;;
12591;SDS011;6361;52.120;5.108;2023-02-15T06:35:42;47.88;;;24.58;;
12591;SDS011;6361;52.120;5.108;2023-02-15T06:38:08;45.72;;;24.40;;
12591;SDS011;6361;52.120;5.108;2023-02-15T06:40:33;40.20;;;24.13;;
12591;SDS011;6361;52.120;5.108;2023-02-15T06:42:58;40.72;;;24.33;;
12591;SDS011;6361;52.120;5.108;2023-02-15T06:45:24;43.58;;;24.58;;
12591;SDS011;6361;52.120;5.108;2023-02-15T06:47:49;45.45;;;24.85;;
12591;SDS011;6361;52.120;5.108;2023-02-15T06:50:15;43.55;;;25.02;;
12591;SDS011;6361;52.120;5.108;2023-02-15T06:52:40;43.30;;;24.95;;
12591;SDS011;6361;52.120;5.108;2023-02-15T06:55:05;43.90;;;25.23;;
12591;SDS011;6361;52.120;5.108;2023-02-15T06:57:31;42.67;;;24.80;;
12591;SDS011;6361;52.120;5.108;2023-02-15T06:59:58;48.40;;;25.38;;
12591;SDS011;6361;52.120;5.108;2023-02-15T07:02:23;43.55;;;24.50;;
12591;SDS011;6361;52.120;5.108;2023-02-15T07:04:49;48.75;;;25.13;;
12591;SDS011;6361;52.120;5.108;2023-02-15T07:07:14;38.25;;;22.85;;
12591;SDS011;6361;52.120;5.108;2023-02-15T07:09:40;42.63;;;24.77;;
12591;SDS011;6361;52.120;5.108;2023-02-15T07:12:05;43.20;;;23.88;;
12591;SDS011;6361;52.120;5.108;2023-02-15T07:14:50;41.53;;;25.23;;
12591;SDS011;6361;52.120;5.108;2023-02-15T07:17:15;43.88;;;24.95;;
12591;SDS011;6361;52.120;5.108;2023-02-15T07:19:40;51.80;;;26.25;;
12591;SDS011;6361;52.120;5.108;2023-02-15T07:22:06;50.65;;;26.00;;
12591;SDS011;6361;52.120;5.108;2023-02-15T07:24:31;45.80;;;25.48;;
12591;SDS011;6361;52.120;5.108;2023-02-15T07:26:56;46.80;;;25.10;;
12591;SDS011;6361;52.120;5.108;2023-02-15T07:29:22;46.25;;;25.30;;
12591;SDS011;6361;52.120;5.108;2023-02-15T07:31:48;46.03;;;25.70;;
12591;SDS011;6361;52.120;5.108;2023-02-15T07:34:13;44.08;;;25.25;;
12591;SDS011;6361;52.120;5.108;2023-02-15T07:36:38;41.83;;;25.40;;
12591;SDS011;6361;52.120;5.108;2023-02-15T07:39:04;46.15;;;25.65;;
12591;SDS011;6361;52.120;5.108;2023-02-15T07:41:29;41.92;;;25.45;;
12591;SDS011;6361;52.120;5.108;2023-02-15T07:43:54;46.35;;;25.70;;
12591;SDS011;6361;52.120;5.108;2023-02-15T07:46:20;49.65;;;26.67;;
12591;SDS011;6361;52.120;5.108;2023-02-15T07:48:46;46.47;;;25.58;;
12591;SDS011;6361;52.120;5.108;2023-02-15T07:51:12;49.22;;;26.48;;
12591;SDS011;6361;52.120;5.108;2023-02-15T07:53:39;50.78;;;27.35;;
12591;SDS011;6361;52.120;5.108;2023-02-15T07:56:06;46.33;;;26.20;;
12591;SDS011;6361;52.120;5.108;2023-02-15T07:58:35;46.83;;;27.15;;
12591;SDS011;6361;52.120;5.108;2023-02-15T08:01:16;48.42;;;26.27;;
12591;SDS011;6361;52.120;5.108;2023-02-15T08:04:08;47.85;;;26.35;;
12591;SDS011;6361;52.120;5.108;2023-02-15T08:06:35;44.70;;;26.42;;
12591;SDS011;6361;52.120;5.108;2023-02-15T08:09:06;50.78;;;27.80;;
12591;SDS011;6361;52.120;5.108;2023-02-15T08:11:33;50.80;;;27.23;;
12591;SDS011;6361;52.120;5.108;2023-02-15T08:14:04;44.47;;;26.67;;
12591;SDS011;6361;52.120;5.108;2023-02-15T08:16:46;48.33;;;26.95;;
12591;SDS011;6361;52.120;5.108;2023-02-15T08:21:53;43.72;;;24.55;;
12591;SDS011;6361;52.120;5.108;2023-02-15T08:24:23;48.22;;;27.17;;
12591;SDS011;6361;52.120;5.108;2023-02-15T08:26:50;51.05;;;28.75;;
12591;SDS011;6361;52.120;5.108;2023-02-15T08:29:17;54.53;;;27.40;;
12591;SDS011;6361;52.120;5.108;2023-02-15T08:31:44;49.25;;;29.27;;
12591;SDS011;6361;52.120;5.108;2023-02-15T08:34:12;52.97;;;28.35;;
12591;SDS011;6361;52.120;5.108;2023-02-15T08:36:39;55.08;;;28.60;;
12591;SDS011;6361;52.120;5.108;2023-02-15T08:39:05;53.13;;;29.27;;
12591;SDS011;6361;52.120;5.108;2023-02-15T08:41:32;49.92;;;29.13;;
12591;SDS011;6361;52.120;5.108;2023-02-15T08:44:02;52.10;;;28.77;;
12591;SDS011;6361;52.120;5.108;2023-02-15T08:46:30;53.50;;;29.50;;
12591;SDS011;6361;52.120;5.108;2023-02-15T08:48:56;55.20;;;30.55;;
12591;SDS011;6361;52.120;5.108;2023-02-15T08:51:23;51.40;;;28.73;;
12591;SDS011;6361;52.120;5.108;2023-02-15T08:53:51;53.22;;;30.20;;
12591;SDS011;6361;52.120;5.108;2023-02-15T08:56:19;58.15;;;29.13;;
12591;SDS011;6361;52.120;5.108;2023-02-15T08:58:45;52.92;;;28.95;;
12591;SDS011;6361;52.120;5.108;2023-02-15T09:01:12;50.05;;;29.30;;
12591;SDS011;6361;52.120;5.108;2023-02-15T09:03:45;55.63;;;30.27;;
12591;SDS011;6361;52.120;5.108;2023-02-15T09:06:13;57.88;;;30.38;;
12591;SDS011;6361;52.120;5.108;2023-02-15T09:08:39;55.42;;;31.35;;
12591;SDS011;6361;52.120;5.108;2023-02-15T09:11:05;52.85;;;29.90;;
12591;SDS011;6361;52.120;5.108;2023-02-15T09:16:17;49.30;;;28.80;;
12591;SDS011;6361;52.120;5.108;2023-02-15T09:18:42;54.30;;;29.67;;
12591;SDS011;6361;52.120;5.108;2023-02-15T09:21:09;54.80;;;29.67;;
12591;SDS011;6361;52.120;5.108;2023-02-15T09:23:38;51.78;;;29.77;;
12591;SDS011;6361;52.120;5.108;2023-02-15T09:26:07;55.38;;;30.23;;
12591;SDS011;6361;52.120;5.108;2023-02-15T09:28:34;54.72;;;30.10;;
12591;SDS011;6361;52.120;5.108;2023-02-15T09:33:39;49.22;;;29.60;;
12591;SDS011;6361;52.120;5.108;2023-02-15T09:36:12;54.60;;;30.13;;
12591;SDS011;6361;52.120;5.108;2023-02-15T09:38:39;54.38;;;30.55;;
12591;SDS011;6361;52.120;5.108;2023-02-15T09:46:49;55.10;;;29.35;;
12591;SDS011;6361;52.120;5.108;2023-02-15T10:00:51;54.00;;;30.33;;
12591;SDS011;6361;52.120;5.108;2023-02-15T10:03:26;56.28;;;31.35;;
12591;SDS011;6361;52.120;5.108;2023-02-15T10:26:30;57.10;;;30.98;;
12591;SDS011;6361;52.120;5.108;2023-02-15T10:29:24;53.35;;;31.20;;
12591;SDS011;6361;52.120;5.108;2023-02-15T10:34:44;54.75;;;31.10;;
12591;SDS011;6361;52.120;5.108;2023-02-15T10:43:13;52.55;;;31.05;;
12591;SDS011;6361;52.120;5.108;2023-02-15T10:51:24;53.15;;;30.20;;
12591;SDS011;6361;52.120;5.108;2023-02-15T11:02:20;60.00;;;33.45;;
12591;SDS011;6361;52.120;5.108;2023-02-15T11:05:03;62.78;;;32.92;;
12591;SDS011;6361;52.120;5.108;2023-02-15T11:07:39;57.33;;;33.03;;
12591;SDS011;6361;52.120;5.108;2023-02-15T11:13:02;57.70;;;33.83;;
12591;SDS011;6361;52.120;5.108;2023-02-15T11:15:31;59.22;;;34.63;;
12591;SDS011;6361;52.120;5.108;2023-02-15T11:18:14;60.50;;;33.70;;
12591;SDS011;6361;52.120;5.108;2023-02-15T11:21:11;63.95;;;33.55;;
12591;SDS011;6361;52.120;5.108;2023-02-15T11:23:43;59.45;;;33.50;;
12591;SDS011;6361;52.120;5.108;2023-02-15T11:26:53;64.78;;;34.25;;
12591;SDS011;6361;52.120;5.108;2023-02-15T11:34:12;58.78;;;34.15;;
12591;SDS011;6361;52.120;5.108;2023-02-15T11:36:51;59.85;;;33.88;;
12591;SDS011;6361;52.120;5.108;2023-02-15T11:39:18;61.90;;;34.30;;
12591;SDS011;6361;52.120;5.108;2023-02-15T11:41:52;64.03;;;34.97;;
12591;SDS011;6361;52.120;5.108;2023-02-15T11:46:49;57.92;;;34.45;;
12591;SDS011;6361;52.120;5.108;2023-02-15T11:49:35;62.95;;;35.00;;
12591;SDS011;6361;52.120;5.108;2023-02-15T11:52:00;63.80;;;34.72;;
12591;SDS011;6361;52.120;5.108;2023-02-15T11:54:29;63.45;;;35.05;;
12591;SDS011;6361;52.120;5.108;2023-02-15T11:57:18;60.33;;;34.13;;
12591;SDS011;6361;52.120;5.108;2023-02-15T12:00:10;67.72;;;35.97;;
12591;SDS011;6361;52.120;5.108;2023-02-15T12:02:50;57.97;;;34.55;;
12591;SDS011;6361;52.120;5.108;2023-02-15T12:05:18;60.33;;;35.00;;
12591;SDS011;6361;52.120;5.108;2023-02-15T12:08:03;63.67;;;34.67;;
12591;SDS011;6361;52.120;5.108;2023-02-15T12:10:42;62.67;;;34.97;;
12591;SDS011;6361;52.120;5.108;2023-02-15T12:13:18;61.40;;;34.75;;
12591;SDS011;6361;52.120;5.108;2023-02-15T12:15:45;65.03;;;35.20;;
12591;SDS011;6361;52.120;5.108;2023-02-15T12:18:25;59.67;;;34.03;;
12591;SDS011;6361;52.120;5.108;2023-02-15T12:21:00;57.78;;;34.13;;
12591;SDS011;6361;52.120;5.108;2023-02-15T12:23:29;62.55;;;35.33;;
12591;SDS011;6361;52.120;5.108;2023-02-15T12:25:57;62.67;;;36.33;;
12591;SDS011;6361;52.120;5.108;2023-02-15T12:28:29;59.55;;;35.78;;
12591;SDS011;6361;52.120;5.108;2023-02-15T12:30:55;65.43;;;37.97;;
12591;SDS011;6361;52.120;5.108;2023-02-15T12:33:26;67.57;;;37.65;;
12591;SDS011;6361;52.120;5.108;2023-02-15T12:35:56;64.68;;;36.55;;
12591;SDS011;6361;52.120;5.108;2023-02-15T12:38:24;69.45;;;38.85;;
12591;SDS011;6361;52.120;5.108;2023-02-15T12:41:04;61.35;;;36.63;;
12591;SDS011;6361;52.120;5.108;2023-02-15T12:43:44;63.53;;;37.28;;
12591;SDS011;6361;52.120;5.108;2023-02-15T12:46:20;63.83;;;37.53;;
12591;SDS011;6361;52.120;5.108;2023-02-15T12:48:50;64.13;;;35.72;;
12591;SDS011;6361;52.120;5.108;2023-02-15T12:51:31;60.50;;;37.25;;
12591;SDS011;6361;52.120;5.108;2023-02-15T12:57:14;61.63;;;36.88;;
12591;SDS011;6361;52.120;5.108;2023-02-15T13:02:20;59.13;;;34.80;;
12591;SDS011;6361;52.120;5.108;2023-02-15T13:04:48;60.47;;;34.95;;
12591;SDS011;6361;52.120;5.108;2023-02-15T13:07:14;60.70;;;35.10;;
12591;SDS011;6361;52.120;5.108;2023-02-15T13:09:39;59.85;;;34.10;;
12591;SDS011;6361;52.120;5.108;2023-02-15T13:14:45;62.92;;;36.67;;
12591;SDS011;6361;52.120;5.108;2023-02-15T13:17:13;66.70;;;37.05;;
12591;SDS011;6361;52.120;5.108;2023-02-15T13:19:41;59.15;;;35.42;;
12591;SDS011;6361;52.120;5.108;2023-02-15T13:22:10;60.55;;;35.40;;
12591;SDS011;6361;52.120;5.108;2023-02-15T13:24:39;67.70;;;37.15;;
12591;SDS011;6361;52.120;5.108;2023-02-15T13:27:14;61.88;;;35.88;;
12591;SDS011;6361;52.120;5.108;2023-02-15T13:29:43;61.25;;;35.65;;
12591;SDS011;6361;52.120;5.108;2023-02-15T13:32:19;67.45;;;37.38;;
12591;SDS011;6361;52.120;5.108;2023-02-15T13:34:46;59.63;;;36.35;;
12591;SDS011;6361;52.120;5.108;2023-02-15T13:37:19;62.78;;;36.75;;
12591;SDS011;6361;52.120;5.108;2023-02-15T13:39:53;65.53;;;37.05;;
12591;SDS011;6361;52.120;5.108;2023-02-15T13:55:57;62.15;;;36.78;;
12591;SDS011;6361;52.120;5.108;2023-02-15T14:01:14;63.90;;;37.58;;
12591;SDS011;6361;52.120;5.108;2023-02-15T14:11:40;62.90;;;36.47;;
12591;SDS011;6361;52.120;5.108;2023-02-15T14:19:47;62.20;;;36.25;;
12591;SDS011;6361;52.120;5.108;2023-02-15T14:22:20;64.63;;;35.80;;
12591;SDS011;6361;52.120;5.108;2023-02-15T14:30:34;61.67;;;35.50;;
12591;SDS011;6361;52.120;5.108;2023-02-15T14:33:06;65.13;;;36.40;;
12591;SDS011;6361;52.120;5.108;2023-02-15T14:35:34;63.83;;;35.80;;
12591;SDS011;6361;52.120;5.108;2023-02-15T14:40:43;66.75;;;37.40;;
12591;SDS011;6361;52.120;5.108;2023-02-15T14:48:51;65.70;;;37.72;;
12591;SDS011;6361;52.120;5.108;2023-02-15T14:56:46;62.33;;;37.38;;
12591;SDS011;6361;52.120;5.108;2023-02-15T15:04:38;61.75;;;37.55;;
12591;SDS011;6361;52.120;5.108;2023-02-15T15:09:47;65.28;;;38.70;;
12591;SDS011;6361;52.120;5.108;2023-02-15T15:14:51;63.90;;;37.72;;
12591;SDS011;6361;52.120;5.108;2023-02-15T15:22:29;65.50;;;37.83;;
12591;SDS011;6361;52.120;5.108;2023-02-15T15:24:56;63.10;;;37.15;;
12591;SDS011;6361;52.120;5.108;2023-02-15T15:27:48;68.93;;;40.03;;
12591;SDS011;6361;52.120;5.108;2023-02-15T15:45:57;68.30;;;38.88;;
12591;SDS011;6361;52.120;5.108;2023-02-15T15:48:36;62.30;;;38.03;;
12591;SDS011;6361;52.120;5.108;2023-02-15T15:51:27;69.07;;;39.05;;
12591;SDS011;6361;52.120;5.108;2023-02-15T15:53:56;72.47;;;38.88;;
12591;SDS011;6361;52.120;5.108;2023-02-15T15:56:27;68.75;;;39.45;;
12591;SDS011;6361;52.120;5.108;2023-02-15T15:58:57;66.18;;;39.28;;
12591;SDS011;6361;52.120;5.108;2023-02-15T16:01:29;65.70;;;39.22;;
12591;SDS011;6361;52.120;5.108;2023-02-15T16:03:59;70.03;;;39.47;;
12591;SDS011;6361;52.120;5.108;2023-02-15T16:06:34;67.15;;;39.22;;
12591;SDS011;6361;52.120;5.108;2023-02-15T16:11:46;70.00;;;39.80;;
12591;SDS011;6361;52.120;5.108;2023-02-15T16:14:55;68.90;;;38.78;;
12591;SDS011;6361;52.120;5.108;2023-02-15T16:17:04;70.45;;;39.65;;
12591;SDS011;6361;52.120;5.108;2023-02-15T16:19:35;67.47;;;39.30;;
12591;SDS011;6361;52.120;5.108;2023-02-15T16:22:03;72.32;;;38.55;;
12591;SDS011;6361;52.120;5.108;2023-02-15T16:27:38;70.65;;;40.85;;
12591;SDS011;6361;52.120;5.108;2023-02-15T16:33:11;68.53;;;39.53;;
12591;SDS011;6361;52.120;5.108;2023-02-15T16:35:39;74.85;;;38.75;;
12591;SDS011;6361;52.120;5.108;2023-02-15T16:38:08;70.47;;;40.78;;
12591;SDS011;6361;52.120;5.108;2023-02-15T16:40:41;70.32;;;40.78;;
12591;SDS011;6361;52.120;5.108;2023-02-15T16:43:20;69.30;;;39.03;;
12591;SDS011;6361;52.120;5.108;2023-02-15T16:45:48;65.95;;;39.65;;
12591;SDS011;6361;52.120;5.108;2023-02-15T16:48:19;74.13;;;38.83;;
12591;SDS011;6361;52.120;5.108;2023-02-15T16:50:48;68.38;;;39.40;;
12591;SDS011;6361;52.120;5.108;2023-02-15T16:53:17;66.45;;;38.03;;
12591;SDS011;6361;52.120;5.108;2023-02-15T16:55:50;69.30;;;37.88;;
12591;SDS011;6361;52.120;5.108;2023-02-15T16:58:17;70.68;;;38.38;;
12591;SDS011;6361;52.120;5.108;2023-02-15T17:00:44;64.70;;;38.13;;
12591;SDS011;6361;52.120;5.108;2023-02-15T17:05:42;66.22;;;35.78;;
12591;SDS011;6361;52.120;5.108;2023-02-15T17:08:17;64.72;;;36.30;;
12591;SDS011;6361;52.120;5.108;2023-02-15T17:16:43;62.17;;;35.85;;
12591;SDS011;6361;52.120;5.108;2023-02-15T17:19:24;68.13;;;37.45;;
12591;SDS011;6361;52.120;5.108;2023-02-15T17:21:58;70.40;;;35.83;;
12591;SDS011;6361;52.120;5.108;2023-02-15T17:24:41;66.40;;;36.92;;
12591;SDS011;6361;52.120;5.108;2023-02-15T17:27:12;62.95;;;35.92;;
12591;SDS011;6361;52.120;5.108;2023-02-15T17:30:03;59.90;;;36.30;;
12591;SDS011;6361;52.120;5.108;2023-02-15T17:32:38;61.33;;;36.40;;
12591;SDS011;6361;52.120;5.108;2023-02-15T17:35:25;65.85;;;36.17;;
12591;SDS011;6361;52.120;5.108;2023-02-15T17:38:02;64.72;;;36.45;;
12591;SDS011;6361;52.120;5.108;2023-02-15T17:40:38;66.15;;;36.65;;
12591;SDS011;6361;52.120;5.108;2023-02-15T17:43:04;65.90;;;36.72;;
12591;SDS011;6361;52.120;5.108;2023-02-15T17:45:33;63.28;;;37.13;;
12591;SDS011;6361;52.120;5.108;2023-02-15T17:48:02;64.65;;;37.00;;
12591;SDS011;6361;52.120;5.108;2023-02-15T17:50:28;69.00;;;37.63;;
12591;SDS011;6361;52.120;5.108;2023-02-15T17:52:55;68.22;;;38.97;;
12591;SDS011;6361;52.120;5.108;2023-02-15T17:55:22;68.95;;;40.00;;
12591;SDS011;6361;52.120;5.108;2023-02-15T17:58:04;73.55;;;39.78;;
12591;SDS011;6361;52.120;5.108;2023-02-15T18:00:34;72.65;;;40.25;;
12591;SDS011;6361;52.120;5.108;2023-02-15T18:03:20;71.97;;;39.85;;
12591;SDS011;6361;52.120;5.108;2023-02-15T18:06:04;73.40;;;40.10;;
12591;SDS011;6361;52.120;5.108;2023-02-15T18:08:48;68.95;;;38.33;;
12591;SDS011;6361;52.120;5.108;2023-02-15T18:11:32;74.10;;;40.25;;
12591;SDS011;6361;52.120;5.108;2023-02-15T18:14:07;70.53;;;38.90;;
12591;SDS011;6361;52.120;5.108;2023-02-15T18:16:35;73.25;;;39.60;;
12591;SDS011;6361;52.120;5.108;2023-02-15T18:19:09;66.03;;;39.70;;
12591;SDS011;6361;52.120;5.108;2023-02-15T18:21:38;65.18;;;38.58;;
12591;SDS011;6361;52.120;5.108;2023-02-15T18:24:03;65.47;;;36.85;;
12591;SDS011;6361;52.120;5.108;2023-02-15T18:26:28;68.38;;;38.67;;
12591;SDS011;6361;52.120;5.108;2023-02-15T18:28:54;67.88;;;38.30;;